sensor_id;sensor_type;location;lat;lon;timestamp;pressure;altitude;pressure_sealevel;temperature;humidity
81387;BME280;70842;50.744;7.114;2023-10-31T00:00:17;99225.50;;;14.61;66.56
81387;BME280;70842;50.744;7.114;2023-10-31T00:02:43;99234.69;;;14.44;66.32
81387;BME280;70842;50.744;7.114;2023-10-31T00:05:10;99227.72;;;14.29;66.34
81387;BME280;70842;50.744;7.114;2023-10-31T00:07:36;99240.19;;;14.28;66.75
81387;BME280;70842;50.744;7.114;2023-10-31T00:10:03;99234.53;;;14.31;66.45
81387;BME280;70842;50.744;7.114;2023-10-31T00:12:29;99244.00;;;14.48;65.51
81387;BME280;70842;50.744;7.114;2023-10-31T00:14:56;99243.13;;;14.19;65.89
81387;BME280;70842;50.744;7.114;2023-10-31T00:17:22;99254.22;;;14.22;65.08
81387;BME280;70842;50.744;7.114;2023-10-31T00:19:48;99259.38;;;14.24;65.21
81387;BME280;70842;50.744;7.114;2023-10-31T00:22:15;99258.66;;;14.30;64.68
81387;BME280;70842;50.744;7.114;2023-10-31T00:24:41;99262.31;;;13.91;65.96
81387;BME280;70842;50.744;7.114;2023-10-31T00:27:08;99264.19;;;13.91;65.13
81387;BME280;70842;50.744;7.114;2023-10-31T00:29:35;99261.28;;;14.15;64.78
81387;BME280;70842;50.744;7.114;2023-10-31T00:32:01;99267.03;;;14.04;65.36
81387;BME280;70842;50.744;7.114;2023-10-31T00:34:31;99274.84;;;13.91;65.40
81387;BME280;70842;50.744;7.114;2023-10-31T00:36:57;99281.47;;;13.95;65.75
81387;BME280;70842;50.744;7.114;2023-10-31T00:39:24;99277.19;;;13.86;65.91
81387;BME280;70842;50.744;7.114;2023-10-31T00:41:50;99278.66;;;13.66;66.78
81387;BME280;70842;50.744;7.114;2023-10-31T00:44:16;99283.25;;;13.80;66.25
81387;BME280;70842;50.744;7.114;2023-10-31T00:46:43;99293.66;;;14.04;65.24
81387;BME280;70842;50.744;7.114;2023-10-31T00:49:10;99293.63;;;13.44;66.82
81387;BME280;70842;50.744;7.114;2023-10-31T00:51:36;99285.06;;;13.57;66.75
81387;BME280;70842;50.744;7.114;2023-10-31T00:54:03;99290.78;;;13.46;66.64
81387;BME280;70842;50.744;7.114;2023-10-31T00:56:29;99295.53;;;13.58;66.98
81387;BME280;70842;50.744;7.114;2023-10-31T00:58:55;99299.81;;;13.37;66.53
81387;BME280;70842;50.744;7.114;2023-10-31T01:01:22;99309.25;;;13.16;67.70
81387;BME280;70842;50.744;7.114;2023-10-31T01:03:48;99304.72;;;13.25;67.62
81387;BME280;70842;50.744;7.114;2023-10-31T01:06:15;99315.22;;;13.18;68.25
81387;BME280;70842;50.744;7.114;2023-10-31T01:08:41;99315.66;;;13.30;67.95
81387;BME280;70842;50.744;7.114;2023-10-31T01:11:08;99312.84;;;13.23;67.93
81387;BME280;70842;50.744;7.114;2023-10-31T01:13:34;99320.25;;;13.05;67.96
81387;BME280;70842;50.744;7.114;2023-10-31T01:16:01;99317.38;;;13.23;68.15
81387;BME280;70842;50.744;7.114;2023-10-31T01:18:27;99317.00;;;13.26;68.92
81387;BME280;70842;50.744;7.114;2023-10-31T01:20:54;99325.91;;;13.10;68.89
81387;BME280;70842;50.744;7.114;2023-10-31T01:23:20;99325.25;;;13.08;69.08
81387;BME280;70842;50.744;7.114;2023-10-31T01:25:46;99330.63;;;12.84;69.76
81387;BME280;70842;50.744;7.114;2023-10-31T01:28:13;99338.22;;;12.87;69.55
81387;BME280;70842;50.744;7.114;2023-10-31T01:30:39;99334.38;;;12.98;69.47
81387;BME280;70842;50.744;7.114;2023-10-31T01:33:05;99330.06;;;12.97;69.76
81387;BME280;70842;50.744;7.114;2023-10-31T01:35:32;99333.72;;;13.12;69.08
81387;BME280;70842;50.744;7.114;2023-10-31T01:37:59;99339.03;;;13.12;68.86
81387;BME280;70842;50.744;7.114;2023-10-31T01:40:25;99340.84;;;13.11;68.47
81387;BME280;70842;50.744;7.114;2023-10-31T01:42:52;99329.88;;;13.14;68.49
81387;BME280;70842;50.744;7.114;2023-10-31T01:45:18;99349.06;;;13.32;68.19
81387;BME280;70842;50.744;7.114;2023-10-31T01:47:47;99334.41;;;13.37;67.61
81387;BME280;70842;50.744;7.114;2023-10-31T01:50:14;99329.38;;;13.11;68.20
81387;BME280;70842;50.744;7.114;2023-10-31T01:52:41;99330.88;;;13.13;67.88
81387;BME280;70842;50.744;7.114;2023-10-31T01:55:08;99318.69;;;13.27;67.79
81387;BME280;70842;50.744;7.114;2023-10-31T01:57:35;99314.44;;;13.41;67.46
81387;BME280;70842;50.744;7.114;2023-10-31T02:00:02;99319.84;;;13.24;67.09
81387;BME280;70842;50.744;7.114;2023-10-31T02:02:29;99326.06;;;13.09;68.18
81387;BME280;70842;50.744;7.114;2023-10-31T02:04:59;99330.50;;;13.24;67.43
81387;BME280;70842;50.744;7.114;2023-10-31T02:07:25;99329.88;;;12.98;68.27
81387;BME280;70842;50.744;7.114;2023-10-31T02:09:52;99330.34;;;13.18;67.75
81387;BME280;70842;50.744;7.114;2023-10-31T02:12:34;99332.50;;;13.22;67.01
81387;BME280;70842;50.744;7.114;2023-10-31T02:15:02;99336.22;;;13.36;67.07
81387;BME280;70842;50.744;7.114;2023-10-31T02:17:28;99332.22;;;13.09;66.76
81387;BME280;70842;50.744;7.114;2023-10-31T02:19:55;99338.47;;;13.24;66.29
81387;BME280;70842;50.744;7.114;2023-10-31T02:22:22;99320.81;;;13.32;66.34
81387;BME280;70842;50.744;7.114;2023-10-31T02:24:49;99339.13;;;13.26;65.88
81387;BME280;70842;50.744;7.114;2023-10-31T02:27:15;99328.38;;;13.43;66.21
81387;BME280;70842;50.744;7.114;2023-10-31T02:29:42;99329.47;;;13.25;66.98
81387;BME280;70842;50.744;7.114;2023-10-31T02:32:08;99330.81;;;13.29;66.25
81387;BME280;70842;50.744;7.114;2023-10-31T02:34:35;99326.28;;;13.30;66.31
81387;BME280;70842;50.744;7.114;2023-10-31T02:37:01;99329.19;;;13.20;66.41
81387;BME280;70842;50.744;7.114;2023-10-31T02:39:27;99339.13;;;13.26;66.60
81387;BME280;70842;50.744;7.114;2023-10-31T02:41:54;99335.28;;;13.29;66.21
81387;BME280;70842;50.744;7.114;2023-10-31T02:44:20;99335.09;;;13.30;66.13
81387;BME280;70842;50.744;7.114;2023-10-31T02:46:47;99348.41;;;13.30;65.99
81387;BME280;70842;50.744;7.114;2023-10-31T02:49:13;99357.09;;;13.24;65.83
81387;BME280;70842;50.744;7.114;2023-10-31T02:51:40;99347.75;;;13.28;66.10
81387;BME280;70842;50.744;7.114;2023-10-31T02:54:06;99350.63;;;13.19;65.62
81387;BME280;70842;50.744;7.114;2023-10-31T02:56:32;99357.16;;;13.08;66.03
81387;BME280;70842;50.744;7.114;2023-10-31T02:59:02;99352.84;;;13.07;66.09
81387;BME280;70842;50.744;7.114;2023-10-31T03:01:29;99352.78;;;13.15;66.01
81387;BME280;70842;50.744;7.114;2023-10-31T03:03:55;99362.31;;;13.02;66.27
81387;BME280;70842;50.744;7.114;2023-10-31T03:06:22;99354.28;;;13.18;65.87
81387;BME280;70842;50.744;7.114;2023-10-31T03:08:48;99357.63;;;13.12;65.52
81387;BME280;70842;50.744;7.114;2023-10-31T03:11:25;99363.28;;;13.09;65.82
81387;BME280;70842;50.744;7.114;2023-10-31T03:13:52;99356.09;;;13.17;65.68
81387;BME280;70842;50.744;7.114;2023-10-31T03:16:20;99362.97;;;13.12;64.87
81387;BME280;70842;50.744;7.114;2023-10-31T03:18:46;99366.97;;;13.08;65.20
81387;BME280;70842;50.744;7.114;2023-10-31T03:21:13;99370.03;;;13.27;65.00
81387;BME280;70842;50.744;7.114;2023-10-31T03:23:49;99368.00;;;13.38;64.90
81387;BME280;70842;50.744;7.114;2023-10-31T03:26:16;99369.19;;;13.35;64.54
81387;BME280;70842;50.744;7.114;2023-10-31T03:28:43;99370.75;;;13.13;64.71
81387;BME280;70842;50.744;7.114;2023-10-31T03:31:11;99370.03;;;13.27;65.20
81387;BME280;70842;50.744;7.114;2023-10-31T03:33:38;99369.00;;;13.67;63.44
81387;BME280;70842;50.744;7.114;2023-10-31T03:36:05;99371.88;;;13.27;64.62
81387;BME280;70842;50.744;7.114;2023-10-31T03:38:32;99382.63;;;12.79;65.47
81387;BME280;70842;50.744;7.114;2023-10-31T03:40:58;99381.75;;;13.10;65.11
81387;BME280;70842;50.744;7.114;2023-10-31T03:43:25;99382.56;;;13.19;64.82
81387;BME280;70842;50.744;7.114;2023-10-31T03:45:52;99389.03;;;13.00;65.48
81387;BME280;70842;50.744;7.114;2023-10-31T03:48:18;99395.25;;;12.77;66.13
81387;BME280;70842;50.744;7.114;2023-10-31T03:50:45;99394.09;;;12.71;66.19
81387;BME280;70842;50.744;7.114;2023-10-31T03:53:11;99410.72;;;12.73;66.18
81387;BME280;70842;50.744;7.114;2023-10-31T03:55:38;99407.72;;;12.68;66.30
81387;BME280;70842;50.744;7.114;2023-10-31T03:58:04;99400.09;;;12.57;66.68
81387;BME280;70842;50.744;7.114;2023-10-31T04:00:32;99414.88;;;12.51;66.61
81387;BME280;70842;50.744;7.114;2023-10-31T04:02:58;99413.50;;;12.88;66.34
81387;BME280;70842;50.744;7.114;2023-10-31T04:05:24;99414.22;;;12.66;66.24
81387;BME280;70842;50.744;7.114;2023-10-31T04:07:51;99409.03;;;12.80;66.26
81387;BME280;70842;50.744;7.114;2023-10-31T04:10:18;99415.69;;;12.76;66.53
81387;BME280;70842;50.744;7.114;2023-10-31T04:12:45;99416.03;;;12.65;66.85
81387;BME280;70842;50.744;7.114;2023-10-31T04:15:12;99420.31;;;13.06;66.08
81387;BME280;70842;50.744;7.114;2023-10-31T04:17:38;99426.00;;;12.63;67.12
81387;BME280;70842;50.744;7.114;2023-10-31T04:20:05;99420.34;;;12.66;67.13
81387;BME280;70842;50.744;7.114;2023-10-31T04:22:32;99430.00;;;12.51;67.15
81387;BME280;70842;50.744;7.114;2023-10-31T04:24:58;99434.63;;;12.81;66.54
81387;BME280;70842;50.744;7.114;2023-10-31T04:27:25;99432.66;;;12.67;67.29
81387;BME280;70842;50.744;7.114;2023-10-31T04:29:51;99429.81;;;12.36;67.98
81387;BME280;70842;50.744;7.114;2023-10-31T04:32:17;99428.66;;;12.23;68.93
81387;BME280;70842;50.744;7.114;2023-10-31T04:34:44;99425.69;;;12.34;68.56
81387;BME280;70842;50.744;7.114;2023-10-31T04:37:10;99440.28;;;12.86;66.89
81387;BME280;70842;50.744;7.114;2023-10-31T04:39:37;99444.63;;;12.63;68.09
81387;BME280;70842;50.744;7.114;2023-10-31T04:42:03;99448.75;;;12.74;67.02
81387;BME280;70842;50.744;7.114;2023-10-31T04:44:30;99448.84;;;13.28;65.46
81387;BME280;70842;50.744;7.114;2023-10-31T04:46:56;99451.56;;;13.12;65.89
81387;BME280;70842;50.744;7.114;2023-10-31T04:49:23;99448.06;;;13.59;64.46
81387;BME280;70842;50.744;7.114;2023-10-31T04:51:49;99436.53;;;13.27;64.83
81387;BME280;70842;50.744;7.114;2023-10-31T04:54:15;99451.00;;;13.33;65.63
81387;BME280;70842;50.744;7.114;2023-10-31T04:56:42;99457.09;;;13.50;65.37
81387;BME280;70842;50.744;7.114;2023-10-31T04:59:08;99449.16;;;13.80;64.12
81387;BME280;70842;50.744;7.114;2023-10-31T05:01:35;99453.53;;;13.96;63.42
81387;BME280;70842;50.744;7.114;2023-10-31T05:04:01;99459.72;;;14.19;63.04
81387;BME280;70842;50.744;7.114;2023-10-31T05:06:38;99454.44;;;13.88;63.84
81387;BME280;70842;50.744;7.114;2023-10-31T05:09:04;99468.19;;;13.61;68.25
81387;BME280;70842;50.744;7.114;2023-10-31T05:11:32;99459.38;;;13.61;65.89
81387;BME280;70842;50.744;7.114;2023-10-31T05:13:58;99456.81;;;14.06;65.76
81387;BME280;70842;50.744;7.114;2023-10-31T05:16:25;99464.53;;;14.24;63.69
81387;BME280;70842;50.744;7.114;2023-10-31T05:18:52;99461.78;;;14.40;63.22
81387;BME280;70842;50.744;7.114;2023-10-31T05:21:19;99466.94;;;14.10;63.80
81387;BME280;70842;50.744;7.114;2023-10-31T05:23:47;99469.03;;;14.31;63.35
81387;BME280;70842;50.744;7.114;2023-10-31T05:26:13;99462.59;;;14.40;62.98
81387;BME280;70842;50.744;7.114;2023-10-31T05:28:39;99471.56;;;14.47;62.45
81387;BME280;70842;50.744;7.114;2023-10-31T05:31:06;99475.81;;;14.56;61.94
81387;BME280;70842;50.744;7.114;2023-10-31T05:33:32;99474.56;;;14.44;62.06
81387;BME280;70842;50.744;7.114;2023-10-31T05:35:59;99472.44;;;14.62;61.53
81387;BME280;70842;50.744;7.114;2023-10-31T05:38:25;99480.63;;;14.61;61.48
81387;BME280;70842;50.744;7.114;2023-10-31T05:40:52;99487.81;;;14.30;62.67
81387;BME280;70842;50.744;7.114;2023-10-31T05:43:18;99482.19;;;13.94;63.46
81387;BME280;70842;50.744;7.114;2023-10-31T05:45:45;99482.75;;;14.12;63.43
81387;BME280;70842;50.744;7.114;2023-10-31T05:48:11;99489.97;;;14.34;62.89
81387;BME280;70842;50.744;7.114;2023-10-31T05:50:42;99498.59;;;14.05;64.07
81387;BME280;70842;50.744;7.114;2023-10-31T05:53:08;99503.72;;;13.84;64.71
81387;BME280;70842;50.744;7.114;2023-10-31T05:55:38;99497.13;;;14.03;64.02
81387;BME280;70842;50.744;7.114;2023-10-31T05:58:07;99512.16;;;13.88;64.59
81387;BME280;70842;50.744;7.114;2023-10-31T06:00:34;99518.22;;;13.66;65.37
81387;BME280;70842;50.744;7.114;2023-10-31T06:03:04;99519.03;;;13.74;64.99
81387;BME280;70842;50.744;7.114;2023-10-31T06:05:31;99509.69;;;13.40;65.67
81387;BME280;70842;50.744;7.114;2023-10-31T06:07:57;99526.59;;;13.47;65.63
81387;BME280;70842;50.744;7.114;2023-10-31T06:10:23;99533.38;;;13.73;64.62
81387;BME280;70842;50.744;7.114;2023-10-31T06:12:50;99527.28;;;13.41;65.28
81387;BME280;70842;50.744;7.114;2023-10-31T06:15:16;99533.97;;;12.88;66.34
81387;BME280;70842;50.744;7.114;2023-10-31T06:17:43;99534.78;;;13.37;65.78
81387;BME280;70842;50.744;7.114;2023-10-31T06:20:10;99538.59;;;13.43;65.67
81387;BME280;70842;50.744;7.114;2023-10-31T06:22:36;99536.06;;;13.65;64.88
81387;BME280;70842;50.744;7.114;2023-10-31T06:25:03;99544.53;;;13.69;65.25
81387;BME280;70842;50.744;7.114;2023-10-31T06:27:29;99544.78;;;13.90;64.72
81387;BME280;70842;50.744;7.114;2023-10-31T06:29:56;99546.75;;;13.41;65.08
81387;BME280;70842;50.744;7.114;2023-10-31T06:32:42;99547.94;;;13.30;65.53
81387;BME280;70842;50.744;7.114;2023-10-31T06:35:08;99547.75;;;13.48;65.33
81387;BME280;70842;50.744;7.114;2023-10-31T06:37:35;99538.41;;;13.60;64.19
81387;BME280;70842;50.744;7.114;2023-10-31T06:40:03;99553.56;;;13.52;64.74
81387;BME280;70842;50.744;7.114;2023-10-31T06:42:30;99554.75;;;13.41;65.57
81387;BME280;70842;50.744;7.114;2023-10-31T06:44:56;99556.84;;;14.08;63.14
81387;BME280;70842;50.744;7.114;2023-10-31T06:47:23;99560.84;;;13.58;65.17
81387;BME280;70842;50.744;7.114;2023-10-31T06:49:49;99564.22;;;13.44;65.29
81387;BME280;70842;50.744;7.114;2023-10-31T06:52:16;99575.34;;;13.47;64.92
81387;BME280;70842;50.744;7.114;2023-10-31T06:54:43;99598.59;;;14.24;62.79
81387;BME280;70842;50.744;7.114;2023-10-31T06:57:09;99579.59;;;13.72;63.96
81387;BME280;70842;50.744;7.114;2023-10-31T06:59:36;99582.63;;;14.16;62.26
81387;BME280;70842;50.744;7.114;2023-10-31T07:02:02;99606.09;;;13.58;64.46
81387;BME280;70842;50.744;7.114;2023-10-31T07:04:29;99580.13;;;13.60;63.91
81387;BME280;70842;50.744;7.114;2023-10-31T07:06:55;99575.53;;;13.46;64.62
81387;BME280;70842;50.744;7.114;2023-10-31T07:09:25;99592.72;;;13.90;63.79
81387;BME280;70842;50.744;7.114;2023-10-31T07:11:52;99594.66;;;13.33;65.55
81387;BME280;70842;50.744;7.114;2023-10-31T07:14:19;99585.34;;;13.13;65.87
81387;BME280;70842;50.744;7.114;2023-10-31T07:16:47;99609.81;;;13.16;65.65
81387;BME280;70842;50.744;7.114;2023-10-31T07:19:15;99593.78;;;12.92;66.01
81387;BME280;70842;50.744;7.114;2023-10-31T07:21:41;99614.22;;;12.92;66.45
81387;BME280;70842;50.744;7.114;2023-10-31T07:24:08;99623.75;;;13.35;65.17
81387;BME280;70842;50.744;7.114;2023-10-31T07:26:35;99634.41;;;13.26;66.02
81387;BME280;70842;50.744;7.114;2023-10-31T07:29:02;99633.38;;;12.95;66.17
81387;BME280;70842;50.744;7.114;2023-10-31T07:31:28;99633.22;;;13.05;65.49
81387;BME280;70842;50.744;7.114;2023-10-31T07:33:55;99631.41;;;13.21;65.78
81387;BME280;70842;50.744;7.114;2023-10-31T07:36:22;99633.41;;;13.11;65.96
81387;BME280;70842;50.744;7.114;2023-10-31T07:38:48;99648.69;;;13.25;65.41
81387;BME280;70842;50.744;7.114;2023-10-31T07:41:15;99643.38;;;13.17;64.93
81387;BME280;70842;50.744;7.114;2023-10-31T07:43:43;99649.22;;;13.29;64.60
81387;BME280;70842;50.744;7.114;2023-10-31T07:46:13;99640.88;;;13.24;64.89
81387;BME280;70842;50.744;7.114;2023-10-31T07:48:39;99642.19;;;13.60;63.30
81387;BME280;70842;50.744;7.114;2023-10-31T07:51:09;99617.75;;;13.41;64.15
81387;BME280;70842;50.744;7.114;2023-10-31T07:53:35;99644.97;;;13.83;62.41
81387;BME280;70842;50.744;7.114;2023-10-31T07:56:01;99658.47;;;13.97;62.34
81387;BME280;70842;50.744;7.114;2023-10-31T07:58:28;99661.34;;;13.32;64.13
81387;BME280;70842;50.744;7.114;2023-10-31T08:00:54;99669.31;;;13.56;63.52
81387;BME280;70842;50.744;7.114;2023-10-31T08:03:21;99665.50;;;13.34;64.03
81387;BME280;70842;50.744;7.114;2023-10-31T08:05:47;99673.66;;;13.49;63.85
81387;BME280;70842;50.744;7.114;2023-10-31T08:08:14;99674.28;;;13.75;63.43
81387;BME280;70842;50.744;7.114;2023-10-31T08:10:40;99674.31;;;13.67;62.86
81387;BME280;70842;50.744;7.114;2023-10-31T08:13:07;99679.66;;;13.51;64.35
81387;BME280;70842;50.744;7.114;2023-10-31T08:15:33;99683.47;;;13.48;64.07
81387;BME280;70842;50.744;7.114;2023-10-31T08:17:59;99679.47;;;13.52;64.13
81387;BME280;70842;50.744;7.114;2023-10-31T08:20:26;99688.28;;;13.69;63.91
81387;BME280;70842;50.744;7.114;2023-10-31T08:22:53;99682.03;;;14.25;62.19
81387;BME280;70842;50.744;7.114;2023-10-31T08:25:19;99676.28;;;13.89;62.77
81387;BME280;70842;50.744;7.114;2023-10-31T08:27:45;99684.56;;;14.10;62.25
81387;BME280;70842;50.744;7.114;2023-10-31T08:30:12;99675.94;;;13.92;62.02
81387;BME280;70842;50.744;7.114;2023-10-31T08:32:39;99679.94;;;13.80;61.74
81387;BME280;70842;50.744;7.114;2023-10-31T08:35:06;99707.25;;;13.82;62.60
81387;BME280;70842;50.744;7.114;2023-10-31T08:37:32;99696.03;;;14.02;61.91
81387;BME280;70842;50.744;7.114;2023-10-31T08:39:59;99701.19;;;14.20;61.79
81387;BME280;70842;50.744;7.114;2023-10-31T08:42:25;99692.75;;;13.92;61.71
81387;BME280;70842;50.744;7.114;2023-10-31T08:44:51;99709.88;;;13.98;61.16
81387;BME280;70842;50.744;7.114;2023-10-31T08:47:18;99713.16;;;14.24;60.63
81387;BME280;70842;50.744;7.114;2023-10-31T08:49:44;99710.06;;;14.59;59.69
81387;BME280;70842;50.744;7.114;2023-10-31T08:52:11;99708.66;;;14.79;58.94
81387;BME280;70842;50.744;7.114;2023-10-31T08:54:37;99718.94;;;14.82;59.45
81387;BME280;70842;50.744;7.114;2023-10-31T08:57:04;99731.06;;;14.93;59.04
81387;BME280;70842;50.744;7.114;2023-10-31T08:59:30;99733.63;;;14.87;59.43
81387;BME280;70842;50.744;7.114;2023-10-31T09:01:57;99738.50;;;14.12;59.89
81387;BME280;70842;50.744;7.114;2023-10-31T09:04:23;99734.59;;;14.47;60.09
81387;BME280;70842;50.744;7.114;2023-10-31T09:06:50;99741.59;;;14.95;59.17
81387;BME280;70842;50.744;7.114;2023-10-31T09:09:16;99744.38;;;15.01;59.07
81387;BME280;70842;50.744;7.114;2023-10-31T09:11:43;99746.88;;;15.03;58.37
81387;BME280;70842;50.744;7.114;2023-10-31T09:14:09;99753.19;;;14.71;58.83
81387;BME280;70842;50.744;7.114;2023-10-31T09:16:36;99748.59;;;14.49;59.45
81387;BME280;70842;50.744;7.114;2023-10-31T09:19:02;99753.22;;;14.55;59.30
81387;BME280;70842;50.744;7.114;2023-10-31T09:21:29;99752.22;;;14.56;59.60
81387;BME280;70842;50.744;7.114;2023-10-31T09:23:55;99762.16;;;14.70;59.05
81387;BME280;70842;50.744;7.114;2023-10-31T09:26:22;99765.72;;;15.01;58.13
81387;BME280;70842;50.744;7.114;2023-10-31T09:28:48;99765.03;;;14.68;59.03
81387;BME280;70842;50.744;7.114;2023-10-31T09:31:17;99756.09;;;14.45;59.70
81387;BME280;70842;50.744;7.114;2023-10-31T09:33:47;99757.97;;;14.83;58.58
81387;BME280;70842;50.744;7.114;2023-10-31T09:36:14;99751.72;;;14.60;58.72
81387;BME280;70842;50.744;7.114;2023-10-31T09:38:41;99776.66;;;14.75;58.26
81387;BME280;70842;50.744;7.114;2023-10-31T09:41:07;99757.34;;;14.65;59.00
81387;BME280;70842;50.744;7.114;2023-10-31T09:43:34;99777.91;;;14.96;58.79
81387;BME280;70842;50.744;7.114;2023-10-31T09:46:01;99777.19;;;15.10;58.20
81387;BME280;70842;50.744;7.114;2023-10-31T09:48:28;99780.19;;;15.07;57.43
81387;BME280;70842;50.744;7.114;2023-10-31T09:50:55;99801.44;;;15.23;56.98
81387;BME280;70842;50.744;7.114;2023-10-31T09:53:23;99808.59;;;15.30;56.86
81387;BME280;70842;50.744;7.114;2023-10-31T09:55:51;99801.25;;;14.94;57.45
81387;BME280;70842;50.744;7.114;2023-10-31T09:58:19;99805.72;;;14.62;57.87
81387;BME280;70842;50.744;7.114;2023-10-31T10:00:46;99814.19;;;15.13;57.45
81387;BME280;70842;50.744;7.114;2023-10-31T10:03:17;99823.44;;;15.33;56.15
81387;BME280;70842;50.744;7.114;2023-10-31T10:05:45;99803.09;;;15.63;55.19
81387;BME280;70842;50.744;7.114;2023-10-31T10:08:12;99797.97;;;15.22;55.45
81387;BME280;70842;50.744;7.114;2023-10-31T10:10:41;99821.09;;;14.99;55.58
81387;BME280;70842;50.744;7.114;2023-10-31T10:13:07;99826.41;;;15.07;55.20
81387;BME280;70842;50.744;7.114;2023-10-31T10:15:45;99828.28;;;15.29;55.23
81387;BME280;70842;50.744;7.114;2023-10-31T10:18:34;99824.06;;;15.04;56.24
81387;BME280;70842;50.744;7.114;2023-10-31T10:21:03;99838.25;;;15.05;56.82
81387;BME280;70842;50.744;7.114;2023-10-31T10:23:29;99835.34;;;15.53;55.41
81387;BME280;70842;50.744;7.114;2023-10-31T10:26:00;99833.56;;;15.99;54.79
81387;BME280;70842;50.744;7.114;2023-10-31T10:28:27;99825.91;;;15.65;54.18
81387;BME280;70842;50.744;7.114;2023-10-31T10:30:55;99840.25;;;15.72;54.50
81387;BME280;70842;50.744;7.114;2023-10-31T10:33:22;99856.00;;;15.90;54.32
81387;BME280;70842;50.744;7.114;2023-10-31T10:35:49;99846.94;;;15.91;52.92
81387;BME280;70842;50.744;7.114;2023-10-31T10:38:16;99844.22;;;15.76;53.46
81387;BME280;70842;50.744;7.114;2023-10-31T10:40:45;99844.63;;;15.65;53.85
81387;BME280;70842;50.744;7.114;2023-10-31T10:43:13;99841.72;;;15.52;54.18
81387;BME280;70842;50.744;7.114;2023-10-31T10:45:45;99842.72;;;15.51;54.69
81387;BME280;70842;50.744;7.114;2023-10-31T10:48:15;99833.06;;;15.95;53.12
81387;BME280;70842;50.744;7.114;2023-10-31T10:50:45;99847.84;;;15.83;53.48
81387;BME280;70842;50.744;7.114;2023-10-31T10:53:21;99858.66;;;15.67;52.74
81387;BME280;70842;50.744;7.114;2023-10-31T10:55:51;99856.91;;;15.74;53.54
81387;BME280;70842;50.744;7.114;2023-10-31T10:58:31;99867.56;;;15.51;54.35
81387;BME280;70842;50.744;7.114;2023-10-31T11:01:00;99853.56;;;15.49;54.78
81387;BME280;70842;50.744;7.114;2023-10-31T11:03:29;99860.91;;;15.09;56.37
81387;BME280;70842;50.744;7.114;2023-10-31T11:05:56;99851.69;;;15.58;54.80
81387;BME280;70842;50.744;7.114;2023-10-31T11:08:24;99857.88;;;15.81;53.46
81387;BME280;70842;50.744;7.114;2023-10-31T11:10:52;99857.94;;;15.96;53.83
81387;BME280;70842;50.744;7.114;2023-10-31T11:13:20;99858.84;;;15.88;54.18
81387;BME280;70842;50.744;7.114;2023-10-31T11:15:48;99853.91;;;15.77;54.17
81387;BME280;70842;50.744;7.114;2023-10-31T11:18:16;99848.50;;;15.85;53.76
81387;BME280;70842;50.744;7.114;2023-10-31T11:20:44;99867.06;;;16.01;53.98
81387;BME280;70842;50.744;7.114;2023-10-31T11:23:11;99841.88;;;15.12;56.01
81387;BME280;70842;50.744;7.114;2023-10-31T11:25:42;99849.84;;;15.20;55.73
81387;BME280;70842;50.744;7.114;2023-10-31T11:28:14;99845.72;;;15.40;55.85
81387;BME280;70842;50.744;7.114;2023-10-31T11:30:42;99858.50;;;15.22;56.04
81387;BME280;70842;50.744;7.114;2023-10-31T11:33:15;99867.53;;;15.82;54.54
81387;BME280;70842;50.744;7.114;2023-10-31T11:35:42;99867.03;;;15.17;56.10
81387;BME280;70842;50.744;7.114;2023-10-31T11:38:12;99850.16;;;14.86;56.38
81387;BME280;70842;50.744;7.114;2023-10-31T11:43:11;99862.44;;;15.34;55.77
81387;BME280;70842;50.744;7.114;2023-10-31T11:45:42;99851.75;;;15.73;54.03
81387;BME280;70842;50.744;7.114;2023-10-31T11:48:14;99872.66;;;16.60;52.73
81387;BME280;70842;50.744;7.114;2023-10-31T11:50:41;99869.78;;;16.61;52.64
81387;BME280;70842;50.744;7.114;2023-10-31T11:53:10;99868.91;;;16.83;52.43
81387;BME280;70842;50.744;7.114;2023-10-31T11:55:41;99869.09;;;16.96;52.49
81387;BME280;70842;50.744;7.114;2023-10-31T12:00:49;99869.22;;;17.68;49.82
81387;BME280;70842;50.744;7.114;2023-10-31T12:03:18;99872.47;;;18.27;48.19
81387;BME280;70842;50.744;7.114;2023-10-31T12:05:59;99852.94;;;18.33;47.95
81387;BME280;70842;50.744;7.114;2023-10-31T12:08:30;99873.22;;;17.57;50.71
81387;BME280;70842;50.744;7.114;2023-10-31T12:13:34;99879.31;;;18.08;48.53
81387;BME280;70842;50.744;7.114;2023-10-31T12:16:04;99875.94;;;17.78;48.76
81387;BME280;70842;50.744;7.114;2023-10-31T12:18:33;99866.78;;;17.08;51.02
81387;BME280;70842;50.744;7.114;2023-10-31T12:21:00;99870.28;;;17.08;50.94
81387;BME280;70842;50.744;7.114;2023-10-31T12:23:27;99885.06;;;17.04;50.70
81387;BME280;70842;50.744;7.114;2023-10-31T12:25:53;99875.06;;;17.42;49.76
81387;BME280;70842;50.744;7.114;2023-10-31T12:28:24;99883.47;;;17.10;50.29
81387;BME280;70842;50.744;7.114;2023-10-31T12:30:53;99878.72;;;17.41;49.81
81387;BME280;70842;50.744;7.114;2023-10-31T12:33:21;99870.63;;;17.49;49.61
81387;BME280;70842;50.744;7.114;2023-10-31T12:35:48;99870.38;;;18.22;48.49
81387;BME280;70842;50.744;7.114;2023-10-31T12:38:15;99874.00;;;17.72;48.43
81387;BME280;70842;50.744;7.114;2023-10-31T12:40:46;99884.19;;;17.33;49.28
81387;BME280;70842;50.744;7.114;2023-10-31T12:43:12;99874.59;;;17.39;48.76
81387;BME280;70842;50.744;7.114;2023-10-31T12:45:39;99861.13;;;16.88;49.74
81387;BME280;70842;50.744;7.114;2023-10-31T12:48:09;99863.16;;;17.80;48.49
81387;BME280;70842;50.744;7.114;2023-10-31T12:50:37;99872.47;;;17.34;49.54
81387;BME280;70842;50.744;7.114;2023-10-31T12:53:05;99863.66;;;17.90;48.19
81387;BME280;70842;50.744;7.114;2023-10-31T12:55:40;99863.53;;;18.20;47.26
81387;BME280;70842;50.744;7.114;2023-10-31T12:58:08;99855.56;;;18.26;47.17
81387;BME280;70842;50.744;7.114;2023-10-31T13:00:37;99853.16;;;18.10;47.36
81387;BME280;70842;50.744;7.114;2023-10-31T13:03:06;99860.81;;;17.56;48.60
81387;BME280;70842;50.744;7.114;2023-10-31T13:05:33;99876.13;;;17.62;48.06
81387;BME280;70842;50.744;7.114;2023-10-31T13:08:03;99861.25;;;16.20;51.07